Latest Weather Observations for Horsham

IDV60801

Issued at 5:32 pm EST Wednesday 27 July 2016 (issued every 30 minutes, with the page automatically refreshed every 10 minutes)

About weather observations | Map of weather stations | Latest weather observations for VIC | Other Formats
Station Details ID: 079100 Name: HORSHAM AERODROME Lat: -36.67 Lon: 142.17 Height: 133.8 m
Data from the previous 72 hours. | See also: Recent months at Horsham
Date/Time
EST
Temp
°C
App
Temp
°C
Dew
Point
°C
Rel
Hum
%
Delta-T
°C
Wind Press
QNH
hPa
Press
MSL
hPa
Rain since
9am
mm
Dir  Spd
km/h
Gust
km/h
Spd
kts
Gust
kts
27/05:30pm 10.1 5.7 4.5 68 2.5 W 17 22 9 12 1022.1 1022.3 0.0
27/05:00pm 10.7 5.9 4.6 66 2.8 WSW 19 26 10 14 1022.0 1022.2 0.0
27/04:30pm 10.5 5.4 4.2 65 2.8 WSW 20 28 11 15 1021.8 1022.0 0.0
27/04:00pm 10.6 4.9 4.7 67 2.7 WSW 24 35 13 19 1021.6 1021.8 0.0
27/03:30pm 10.7 5.3 4.6 66 2.8 SW 22 32 12 17 1021.2 1021.5 0.0
27/03:00pm 10.7 6.0 5.3 69 2.5 SW 19 24 10 13 1020.5 1020.8 0.0
27/02:30pm 10.7 5.0 4.8 67 2.7 SW 24 32 13 17 1020.1 1020.4 0.0
27/02:00pm 10.2 4.2 5.2 71 2.3 WSW 26 33 14 18 1020.0 1020.3 0.0
27/01:30pm 10.3 4.0 5.7 73 2.1 WSW 28 37 15 20 1019.9 1020.2 0.0
27/01:00pm 10.3 4.2 4.7 68 2.5 SW 26 33 14 18 1019.8 1020.1 0.0
27/12:30pm 10.3 3.5 5.1 70 2.4 SW 30 39 16 21 1019.5 1019.8 0.0
27/12:00pm 10.8 5.2 5.6 70 2.4 SW 24 32 13 17 1019.4 1019.7 0.0
27/11:30am 10.1 3.3 5.1 71 2.3 SW 30 41 16 22 1019.3 1019.6 0.0
27/11:00am 9.6 3.2 5.0 73 2.1 SW 28 35 15 19 1018.8 1019.1 0.0
27/10:30am 9.4 2.7 5.8 78 1.7 SW 30 37 16 20 1018.5 1018.8 0.0
27/10:00am 9.0 2.7 5.6 79 1.5 SW 28 35 15 19 1017.7 1018.0 0.0
27/09:30am 8.8 3.8 6.3 84 1.2 SW 22 30 12 16 1017.2 1017.5 0.0
27/09:00am 7.9 2.8 6.2 89 0.8 SW 22 28 12 15 1016.8 1017.1 1.8
27/08:30am 7.6 2.5 5.9 89 0.8 SW 22 26 12 14 1016.0 1016.2 1.8
27/08:00am 7.8 2.4 6.3 90 0.7 SW 24 32 13 17 1015.0 1015.2 1.8
27/07:30am 8.1 1.1 6.2 88 0.9 SW 32 41 17 22 1014.1 1014.3 1.8
27/07:22am 8.2 1.4 6.7 90 0.7 SW 32 39 17 21 1013.9 1014.1 1.8
27/07:12am 8.3 0.9 6.8 90 0.7 SW 35 48 19 26 1013.7 1013.9 1.8
27/07:00am 8.5 1.7 7.6 94 0.4 SW 33 44 18 24 1013.4 1013.7 1.8
27/06:44am 8.6 3.2 7.8 95 0.4 WSW 26 35 14 19 1012.9 1013.2 1.8
27/06:41am 8.7 3.6 7.8 94 0.4 WSW 24 35 13 19 1012.8 1013.1 1.8
27/06:30am 8.6 2.8 7.8 95 0.4 SW 28 37 15 20 1012.6 1012.9 1.8
27/06:25am 8.6 3.2 7.8 95 0.4 WSW 26 32 14 17 1012.5 1012.8 1.8
27/06:07am 8.7 3.2 7.6 93 0.5 WSW 26 35 14 19 1011.8 1012.1 1.8
27/06:00am 8.9 3.4 7.5 91 0.7 WSW 26 33 14 18 1011.7 1012.0 1.8
27/05:30am 8.5 4.1 7.4 93 0.5 WSW 20 28 11 15 1010.8 1011.1 1.8
27/05:19am 8.0 3.6 7.2 95 0.4 WSW 20 26 11 14 1010.6 1010.9 1.8
27/05:00am 7.7 2.8 7.0 95 0.3 W 22 30 12 16 1010.1 1010.3 1.8
27/04:30am 7.9 2.7 7.1 95 0.4 W 24 32 13 17 1009.7 1009.9 1.8
27/04:00am 7.8 2.9 7.1 95 0.3 W 22 30 12 16 1009.3 1009.5 1.8
27/03:30am 7.8 2.9 7.1 95 0.3 W 22 30 12 16 1009.0 1009.2 1.8
27/03:00am 7.9 3.0 7.1 95 0.4 W 22 28 12 15 1008.5 1008.7 1.8
27/02:30am 8.1 2.9 7.3 95 0.4 W 24 30 13 16 1008.0 1008.2 1.8
27/02:00am 8.2 3.0 7.3 94 0.4 W 24 30 13 16 1007.4 1007.6 1.8
27/01:43am 8.2 3.0 7.4 95 0.4 W 24 30 13 16 1007.0 1007.2 1.8
27/01:30am 8.4 3.7 7.6 95 0.4 W 22 33 12 18 1006.9 1007.1 1.8
27/01:00am 8.3 3.1 7.4 94 0.4 W 24 33 13 18 1006.7 1006.9 1.8
27/12:30am 8.3 2.8 7.5 95 0.4 W 26 33 14 18 1006.2 1006.4 1.8
27/12:00am 8.0 2.8 7.2 95 0.4 WNW 24 35 13 19 1005.6 1005.9 1.6
 
Date/Time
EST
Temp
°C
App
Temp
°C
Dew
Point
°C
Rel
Hum
%
Delta-T
°C
Wind Press
QNH
hPa
Press
MSL
hPa
Rain since
9am
mm
Dir  Spd
km/h
Gust
km/h
Spd
kts
Gust
kts
26/11:37pm 7.8 2.5 6.9 94 0.4 NW 24 32 13 17 1005.5 1005.8 1.6
26/11:30pm 7.8 2.1 6.7 93 0.5 NW 26 32 14 17 1005.4 1005.7 1.6
26/11:00pm 7.5 3.0 6.8 95 0.3 NNW 20 28 11 15 1005.3 1005.6 1.6
26/10:55pm 7.6 2.7 6.9 95 0.3 NNW 22 28 12 15 1005.3 1005.6 1.6
26/10:30pm 7.7 2.4 7.0 95 0.3 NNW 24 32 13 17 1005.4 1005.7 1.6
26/10:15pm 7.6 2.7 6.9 95 0.3 NNW 22 28 12 15 1005.5 1005.8 1.6
26/10:11pm 7.5 2.2 6.9 96 0.3 NNW 24 30 13 16 1005.6 1005.9 1.6
26/10:00pm 7.5 1.8 6.8 95 0.3 NW 26 33 14 18 1005.6 1005.9 1.6
26/09:56pm 7.5 1.8 6.8 95 0.3 NW 26 33 14 18 1005.6 1005.9 1.6
26/09:30pm 7.5 1.0 6.4 93 0.5 NNW 30 41 16 22 1005.5 1005.8 1.4
26/09:00pm 7.6 0.5 6.4 92 0.6 NNW 33 46 18 25 1005.8 1006.0 0.8
26/08:30pm 7.5 1.3 6.1 91 0.6 N 28 35 15 19 1006.0 1006.2 0.4
26/08:00pm 7.8 1.2 5.9 88 0.9 N 30 37 16 20 1006.2 1006.4 0.2
26/07:30pm 7.7 1.0 5.8 88 0.9 N 30 35 16 19 1006.5 1006.7 0.2
26/07:00pm 7.3 1.7 5.6 89 0.8 N 24 30 13 16 1006.7 1006.9 0.2
26/06:30pm 7.7 1.7 5.5 86 1.0 N 26 32 14 17 1007.1 1007.3 0.2
26/06:00pm 7.7 2.6 6.2 90 0.7 N 22 28 12 15 1007.5 1007.7 0.2
26/05:30pm 7.8 2.8 6.3 90 0.7 N 22 28 12 15 1007.8 1008.0 0.2
26/05:00pm 8.5 1.2 5.6 82 1.3 NNW 33 44 18 24 1008.0 1008.2 0.2
26/04:30pm 9.0 0.7 6.3 83 1.3 NNW 39 50 21 27 1008.5 1008.7 0.2
26/04:00pm 8.8 3.1 6.6 86 1.0 NNW 26 35 14 19 1009.1 1009.3 0.2
26/03:30pm 8.9 3.4 5.8 81 1.4 NW 24 35 13 19 1009.6 1009.8 0.0
26/03:00pm 9.7 2.5 5.1 73 2.1 NNW 32 41 17 22 1009.9 1010.1 0.0
26/02:30pm 9.9 3.1 5.3 73 2.1 NNW 30 37 16 20 1010.2 1010.4 0.0
26/02:00pm 9.5 3.2 5.7 77 1.7 NNW 28 35 15 19 1010.6 1010.9 0.0
26/01:30pm 9.3 2.6 5.7 78 1.7 NNW 30 39 16 21 1011.2 1011.5 0.0
26/01:00pm 9.4 3.4 5.4 76 1.8 NNW 26 37 14 20 1011.7 1012.0 0.0
26/12:30pm 9.5 2.8 5.7 77 1.7 NNW 30 41 16 22 1012.5 1012.8 0.0
26/12:00pm 9.7 3.0 5.5 75 1.9 NNW 30 39 16 21 1012.9 1013.2 0.0
26/11:30am 9.0 2.5 6.3 83 1.3 NW 30 37 16 20 1013.4 1013.7 0.0
26/11:00am 8.1 2.7 6.4 89 0.8 NNW 24 30 13 16 1013.9 1014.1 0.0
26/10:30am 7.5 0.9 6.1 91 0.6 NW 30 35 16 19 1014.1 1014.3 0.0
26/10:00am 6.6 0.7 5.9 95 0.3 NNW 26 32 14 17 1013.9 1014.1 0.0
26/09:30am 5.6 0.7 5.3 98 0.1 NNW 20 26 11 14 1013.9 1014.1 0.0
26/09:14am 5.1 0.2 5.0 99 0.0 NNW 20 26 11 14 1013.9 1014.1 0.0
26/09:00am 4.5 -0.5 4.4 99 0.0 NNW 20 28 11 15 1013.9 1014.1 4.8
26/08:58am 4.3 -0.6 4.2 99 0.0 NNW 19 24 10 13 1013.9 1014.1 4.8
26/08:30am 3.2 -1.1 3.1 99 0.0 NW 15 17 8 9 1013.9 1014.1 4.8
26/08:00am 2.6 -1.8 2.5 99 0.0 NW 15 19 8 10 1013.8 1014.0 4.8
26/07:30am 2.5 -2.4 2.2 98 0.1 NW 17 17 9 9 1013.7 1013.9 4.8
26/07:00am 2.9 -2.3 2.6 98 0.1 NW 19 22 10 12 1013.2 1013.5 4.8
26/06:30am 2.8 -2.4 2.5 98 0.1 WNW 19 20 10 11 1012.9 1013.2 4.8
26/06:00am 2.0 -2.6 1.7 98 0.1 NNW 15 17 8 9 1012.7 1013.0 4.8
26/05:30am 2.2 -2.7 1.8 97 0.2 NNW 17 20 9 11 1012.4 1012.7 4.8
26/05:00am 2.9 -1.5 2.5 97 0.2 WNW 15 19 8 10 1012.3 1012.6 4.8
26/04:30am 3.0 -1.8 2.4 96 0.2 NW 17 20 9 11 1012.4 1012.7 4.8
26/04:00am 3.4 -1.8 2.7 95 0.3 NW 19 22 10 12 1012.3 1012.6 4.8
26/03:30am 3.8 -1.3 2.9 94 0.4 WNW 19 22 10 12 1012.4 1012.7 4.8
26/03:00am 3.9 -1.4 2.9 93 0.4 WNW 20 26 11 14 1012.4 1012.7 4.8
26/02:30am 3.9 -1.5 2.7 92 0.5 WNW 20 24 11 13 1012.5 1012.8 4.6
26/02:00am 4.3 -1.0 2.8 90 0.6 WNW 20 26 11 14 1012.5 1012.8 4.6
26/01:30am 4.3 -1.0 3.0 91 0.5 WNW 20 22 11 12 1012.5 1012.8 4.6
26/01:00am 4.0 -1.2 2.7 91 0.5 WNW 19 22 10 12 1012.3 1012.6 4.6
26/12:30am 4.1 -1.3 2.6 90 0.6 NW 20 22 11 12 1012.1 1012.4 4.6
26/12:00am 4.9 -0.4 2.9 87 0.8 WNW 20 24 11 13 1012.0 1012.3 4.6
 
Date/Time
EST
Temp
°C
App
Temp
°C
Dew
Point
°C
Rel
Hum
%
Delta-T
°C
Wind Press
QNH
hPa
Press
MSL
hPa
Rain since
9am
mm
Dir  Spd
km/h
Gust
km/h
Spd
kts
Gust
kts
25/11:30pm 4.5 -0.6 3.0 90 0.6 NW 19 22 10 12 1012.0 1012.3 4.6
25/11:00pm 5.2 0.1 3.1 86 0.9 WNW 19 22 10 12 1011.7 1012.0 4.6
25/10:30pm 5.3 0.2 3.3 87 0.8 WNW 19 22 10 12 1011.4 1011.7 4.6
25/10:00pm 5.6 0.6 3.8 88 0.8 WNW 19 22 10 12 1011.2 1011.5 4.6
25/09:30pm 5.7 1.2 4.0 89 0.7 WNW 17 19 9 10 1011.0 1011.3 4.6
25/09:00pm 7.1 2.1 4.6 84 1.1 WNW 20 26 11 14 1010.6 1010.9 4.6
25/08:30pm 7.3 2.4 5.0 85 1.0 WNW 20 28 11 15 1010.4 1010.7 4.6
25/08:00pm 7.2 2.3 5.0 86 1.0 WNW 20 26 11 14 1009.8 1010.0 4.6
25/07:30pm 7.9 1.8 5.0 82 1.3 W 26 32 14 17 1009.2 1009.4 4.6
25/07:00pm 8.5 1.2 5.6 82 1.3 WNW 33 43 18 23 1008.6 1008.8 4.6
25/06:30pm 8.8 0.8 5.9 82 1.3 W 37 50 20 27 1008.1 1008.3 4.6
25/06:00pm 9.0 2.5 6.6 85 1.1 WNW 30 54 16 29 1007.8 1008.0 4.6
25/05:59pm 8.9 2.8 6.7 86 1.0 WNW 28 54 15 29 1007.9 1008.1 4.6
25/05:30pm 8.6 1.8 6.9 89 0.8 W 32 43 17 23 1007.6 1007.8 4.6
25/05:00pm 8.2 0.1 7.1 93 0.5 W 39 63 21 34 1007.7 1007.9 4.4
25/04:55pm 8.4 -0.7 7.0 91 0.7 W 44 63 24 34 1007.8 1008.0 4.2
25/04:42pm 8.1 -1.3 7.0 93 0.5 W 46 65 25 35 1007.3 1007.5 3.8
25/04:35pm 9.4 0.3 8.5 94 0.4 WNW 46 65 25 35 1007.2 1007.4 3.0
25/04:30pm 9.9 0.5 8.8 93 0.5 NW 48 63 26 34 1006.0 1006.2 1.8
25/04:00pm 10.5 0.9 7.9 84 1.3 NW 48 61 26 33 1004.7 1005.0 0.6
25/03:30pm 11.3 1.2 7.4 77 1.9 NW 50 69 27 37 1005.4 1005.7 0.2
25/03:05pm 11.4 1.0 7.7 78 1.8 NNW 52 70 28 38 1005.1 1005.4 0.2
25/03:00pm 11.9 2.2 7.4 74 2.2 NNW 48 63 26 34 1005.0 1005.3 0.2
25/02:47pm 11.9 2.2 7.6 75 2.1 NW 48 67 26 36 1005.8 1006.0 0.2
25/02:30pm 11.8 1.7 7.5 75 2.1 NNW 50 61 27 33 1006.0 1006.2 0.2
25/02:00pm 11.8 3.1 7.9 77 1.9 NW 43 54 23 29 1006.8 1007.0 0.2
25/01:30pm 11.6 4.2 8.5 81 1.5 NW 37 48 20 26 1007.6 1007.8 0.2
25/01:21pm 11.1 4.2 8.7 85 1.2 NW 35 54 19 29 1007.9 1008.1 0.2
25/01:00pm 11.4 3.4 7.5 77 1.9 NW 39 50 21 27 1008.2 1008.4 0.0
25/12:30pm 11.1 3.9 7.6 79 1.7 NW 35 46 19 25 1009.3 1009.5 0.0
25/12:00pm 10.9 4.2 8.1 83 1.4 NW 33 41 18 22 1010.0 1010.2 0.0
25/11:30am 10.9 3.8 8.0 82 1.4 NW 35 44 19 24 1010.4 1010.7 0.0
25/11:00am 10.3 3.6 7.2 81 1.5 NNW 32 39 17 21 1011.0 1011.3 0.0
25/10:30am 9.6 2.9 7.4 86 1.1 NNW 32 39 17 21 1011.4 1011.7 0.0
25/10:00am 9.0 3.8 7.1 88 0.9 NW 24 28 13 15 1011.3 1011.6 0.0
25/09:30am 7.9 3.3 6.5 91 0.6 NW 20 26 11 14 1011.2 1011.5 0.0
25/09:00am 6.9 3.5 6.0 94 0.4 NW 13 17 7 9 1011.4 1011.7 3.0
25/08:30am 5.5 1.9 5.2 98 0.1 NW 13 17 7 9 1011.5 1011.8 3.0
25/08:00am 5.0 1.3 4.7 98 0.1 WNW 13 15 7 8 1011.3 1011.6 3.0
25/07:30am 5.2 1.6 4.9 98 0.1 WNW 13 17 7 9 1010.9 1011.2 3.0
25/07:00am 5.6 1.7 5.3 98 0.1 WNW 15 19 8 10 1010.8 1011.1 3.0
25/06:30am 6.2 2.0 5.9 98 0.1 WNW 17 20 9 11 1010.5 1010.8 3.0
25/06:00am 6.9 2.3 6.3 96 0.3 W 20 24 11 13 1010.1 1010.3 3.0
25/05:30am 7.0 2.0 6.4 96 0.3 W 22 28 12 15 1009.7 1009.9 2.8
25/05:00am 7.5 2.2 6.8 95 0.3 W 24 32 13 17 1009.3 1009.5 2.8
25/04:30am 7.5 2.6 6.9 96 0.3 W 22 30 12 16 1008.9 1009.1 2.8
25/04:22am 7.6 2.3 7.0 96 0.3 W 24 33 13 18 1008.9 1009.1 2.8
25/04:00am 7.6 1.6 7.0 96 0.3 W 28 39 15 21 1008.5 1008.7 2.8
25/03:30am 7.3 1.7 7.0 98 0.1 W 26 33 14 18 1008.2 1008.4 2.8
25/03:00am 6.6 2.0 6.5 99 0.0 WNW 20 26 11 14 1007.9 1008.1 2.8
25/02:39am 6.0 1.3 5.9 99 0.0 WNW 20 24 11 13 1007.9 1008.1 2.8
25/02:30am 5.6 1.0 5.5 99 0.0 WNW 19 24 10 13 1007.7 1007.9 2.8
25/02:00am 4.4 -0.5 4.3 99 0.0 NW 19 24 10 13 1007.5 1007.7 2.8
25/01:30am 3.5 -1.2 3.4 99 0.0 NW 17 19 9 10 1007.3 1007.5 2.8
25/01:00am 3.7 -0.5 3.6 99 0.0 NW 15 19 8 10 1007.2 1007.4 2.8
25/12:30am 3.7 -0.5 3.6 99 0.0 NW 15 17 8 9 1007.1 1007.3 2.8
25/12:00am 4.3 -0.2 4.2 99 0.0 NW 17 20 9 11 1007.2 1007.4 2.8
 
Date/Time
EST
Temp
°C
App
Temp
°C
Dew
Point
°C
Rel
Hum
%
Delta-T
°C
Wind Press
QNH
hPa
Press
MSL
hPa
Rain since
9am
mm
Dir  Spd
km/h
Gust
km/h
Spd
kts
Gust
kts
24/11:30pm 3.8 -0.4 3.7 99 0.0 WNW 15 17 8 9 1006.7 1006.9 2.8
24/11:20pm 3.8 -0.5 3.5 98 0.1 WNW 15 15 8 8 1006.6 1006.8 2.8
24/11:03pm 3.5 -0.1 3.1 97 0.2 WNW 11 13 6 7 1006.3 1006.5 2.6
24/11:00pm 3.9 0.4 3.5 97 0.2 WNW 11 13 6 7 1006.3 1006.5 2.6
24/10:30pm 5.6 2.8 5.2 97 0.2 W 9 11 5 6 1006.2 1006.4 2.6
24/10:03pm 6.4 3.0 6.0 97 0.2 WNW 13 17 7 9 1005.8 1006.0 2.6
24/10:00pm 6.5 3.1 6.1 97 0.2 WNW 13 17 7 9 1005.9 1006.1 2.6
24/09:48pm 6.6 2.9 6.2 97 0.2 WNW 15 19 8 10 1005.9 1006.1 2.6
24/09:30pm 6.8 2.7 6.2 96 0.3 WNW 17 20 9 11 1005.6 1005.9 2.6
24/09:23pm 6.8 2.7 6.2 96 0.3 WNW 17 20 9 11 1005.5 1005.8 2.6
24/09:00pm 6.9 1.8 6.2 95 0.3 WNW 22 28 12 15 1005.4 1005.7 2.4
24/08:30pm 6.9 2.1 5.8 93 0.5 NW 20 26 11 14 1005.4 1005.7 1.4
24/08:00pm 6.9 3.0 5.5 91 0.6 NW 15 20 8 11 1005.4 1005.7 1.4
24/07:30pm 6.9 3.4 5.5 91 0.6 WNW 13 17 7 9 1005.4 1005.7 0.8
24/07:00pm 6.1 3.3 5.1 93 0.4 NNW 9 13 5 7 1005.1 1005.4 0.8
24/06:30pm 6.8 3.3 5.4 91 0.6 NW 13 17 7 9 1004.9 1005.2 0.8
24/06:00pm 7.3 2.4 5.1 86 1.0 WNW 20 24 11 13 1004.7 1005.0 0.8

Other Formats:

Comma delimited format used in spreadsheet applications
http://www.bom.gov.au/fwo/IDV60801/IDV60801.95839.axf

JavaScript Object Notation format (JSON) in row-major order
http://www.bom.gov.au/fwo/IDV60801/IDV60801.95839.json